createdAt,value
2018-06-30T00:00:50.330Z,9.63
2018-06-30T00:03:20.188Z,9.43
2018-06-30T00:05:50.256Z,9.00
2018-06-30T00:08:19.067Z,10.47
2018-06-30T00:10:47.940Z,11.20
2018-06-30T00:13:16.740Z,9.70
2018-06-30T00:15:46.049Z,8.40
2018-06-30T00:18:15.102Z,8.03
2018-06-30T00:20:44.051Z,8.03
2018-06-30T00:23:12.926Z,8.53
2018-06-30T00:25:41.894Z,10.30
2018-06-30T00:28:10.726Z,14.33
2018-06-30T00:30:39.825Z,11.23
2018-06-30T00:33:08.883Z,12.80
2018-06-30T00:35:37.899Z,13.07
2018-06-30T00:38:06.946Z,10.10
2018-06-30T00:40:35.774Z,8.60
2018-06-30T00:43:04.730Z,11.87
2018-06-30T00:45:34.023Z,22.03
2018-06-30T00:48:02.754Z,16.17
2018-06-30T00:50:31.634Z,57.67
2018-06-30T00:53:00.361Z,149.37
2018-06-30T00:55:29.501Z,34.03
2018-06-30T00:57:58.369Z,9.97
2018-06-30T01:00:27.273Z,10.83
2018-06-30T01:02:56.338Z,7.53
2018-06-30T01:05:25.110Z,8.03
2018-06-30T01:07:54.177Z,8.83
2018-06-30T01:10:23.091Z,7.47
2018-06-30T01:12:51.906Z,7.10
2018-06-30T01:15:20.725Z,7.00
2018-06-30T01:17:49.551Z,7.40
2018-06-30T01:20:18.509Z,7.07
2018-06-30T01:22:47.291Z,7.17
2018-06-30T01:25:16.409Z,7.57
2018-06-30T01:27:45.318Z,8.27
2018-06-30T01:30:14.647Z,7.20
2018-06-30T01:32:43.636Z,17.97
2018-06-30T01:35:12.618Z,11.67
2018-06-30T01:37:41.529Z,21.00
2018-06-30T01:40:10.455Z,18.20
2018-06-30T01:42:39.268Z,13.17
2018-06-30T01:45:08.355Z,11.20
2018-06-30T01:47:37.133Z,35.43
2018-06-30T01:50:05.924Z,33.37
2018-06-30T01:52:34.709Z,12.47
2018-06-30T01:55:03.662Z,12.10
2018-06-30T01:57:32.437Z,11.50
2018-06-30T02:00:01.518Z,32.53
2018-06-30T02:02:30.299Z,13.20
2018-06-30T02:04:59.393Z,32.33
2018-06-30T02:07:28.428Z,12.47
2018-06-30T02:09:57.210Z,8.47
2018-06-30T02:12:26.315Z,10.37
2018-06-30T02:14:55.042Z,12.50
2018-06-30T02:17:24.259Z,10.87
2018-06-30T02:19:53.071Z,9.90
2018-06-30T02:22:21.970Z,9.33
2018-06-30T02:24:50.870Z,7.40
2018-06-30T02:27:19.917Z,8.50
2018-06-30T02:29:49.043Z,7.80
2018-06-30T02:32:17.795Z,7.63
2018-06-30T02:34:46.550Z,8.10
2018-06-30T02:37:15.438Z,7.97
2018-06-30T02:39:44.570Z,19.43
2018-06-30T02:42:13.620Z,15.30
2018-06-30T02:44:42.607Z,11.10
2018-06-30T02:47:11.629Z,10.90
2018-06-30T02:49:40.597Z,8.90
2018-06-30T02:52:09.425Z,10.50
2018-06-30T02:54:38.267Z,9.90
2018-06-30T02:57:07.093Z,9.83
2018-06-30T02:59:36.315Z,12.93
2018-06-30T03:02:05.256Z,13.50
2018-06-30T03:15:39.906Z,6.33
2018-06-30T03:18:08.702Z,8.20
2018-06-30T03:20:37.514Z,6.27
2018-06-30T03:23:06.571Z,7.43
2018-06-30T03:25:35.330Z,7.77
2018-06-30T03:28:04.145Z,6.90
2018-06-30T03:30:33.153Z,7.50
2018-06-30T03:33:02.066Z,6.97
2018-06-30T03:35:31.041Z,8.40
2018-06-30T03:38:00.028Z,7.23
2018-06-30T03:40:28.928Z,6.67
2018-06-30T03:42:58.139Z,7.93
2018-06-30T03:45:27.053Z,7.10
2018-06-30T03:47:55.903Z,9.23
2018-06-30T03:50:25.141Z,7.47
2018-06-30T03:52:53.986Z,7.77
2018-06-30T03:55:22.908Z,6.90
2018-06-30T03:57:51.811Z,6.80
2018-06-30T04:00:20.629Z,7.83
2018-06-30T04:02:49.343Z,7.23
2018-06-30T04:05:18.578Z,7.70
2018-06-30T04:07:47.483Z,7.33
2018-06-30T04:10:16.647Z,6.83
2018-06-30T04:12:45.504Z,7.07
2018-06-30T04:15:14.310Z,8.23
2018-06-30T04:17:43.172Z,7.23
2018-06-30T04:20:11.915Z,7.70
2018-06-30T04:22:40.792Z,7.20
2018-06-30T04:25:09.631Z,7.10
2018-06-30T04:27:38.475Z,7.10
2018-06-30T04:30:07.503Z,7.33
2018-06-30T04:32:36.555Z,7.10
2018-06-30T04:35:05.927Z,7.70
2018-06-30T04:37:34.655Z,7.57
2018-06-30T04:40:03.532Z,7.23
2018-06-30T04:42:32.432Z,5.80
2018-06-30T04:45:01.250Z,5.17
2018-06-30T04:47:30.750Z,5.73
2018-06-30T04:49:59.721Z,5.30
2018-06-30T04:52:28.578Z,5.20
2018-06-30T04:54:57.291Z,4.73
2018-06-30T04:57:26.149Z,4.77
2018-06-30T04:59:54.855Z,4.97
2018-06-30T05:02:23.744Z,5.40
2018-06-30T05:04:52.611Z,5.37
2018-06-30T05:07:21.493Z,4.83
2018-06-30T05:09:50.403Z,5.00
2018-06-30T05:12:19.263Z,4.33
2018-06-30T05:14:48.188Z,3.80
2018-06-30T05:17:16.943Z,3.77
2018-06-30T05:19:45.934Z,3.60
2018-06-30T05:22:14.693Z,4.10
2018-06-30T05:24:43.745Z,3.83
2018-06-30T05:27:12.691Z,4.23
2018-06-30T05:29:41.585Z,3.50
2018-06-30T05:32:10.454Z,3.70
2018-06-30T05:34:39.625Z,3.50
2018-06-30T05:37:08.722Z,3.80
2018-06-30T05:39:37.585Z,3.57
2018-06-30T05:42:06.354Z,4.13
2018-06-30T05:44:35.351Z,3.60
2018-06-30T05:47:04.202Z,3.70
2018-06-30T05:49:33.159Z,4.10
2018-06-30T05:52:02.002Z,3.80
2018-06-30T05:54:31.101Z,4.10
2018-06-30T05:56:59.970Z,4.20
2018-06-30T05:59:29.007Z,4.50
2018-06-30T06:01:57.826Z,3.90
2018-06-30T06:04:26.750Z,3.10
2018-06-30T06:06:55.704Z,3.80
2018-06-30T06:09:24.465Z,3.77
2018-06-30T06:11:53.662Z,4.70
2018-06-30T06:14:22.974Z,3.80
2018-06-30T06:16:51.845Z,3.10
2018-06-30T06:19:21.266Z,4.60
2018-06-30T06:21:50.398Z,4.20
2018-06-30T06:24:19.171Z,4.57
2018-06-30T06:26:48.438Z,3.70
2018-06-30T06:29:17.447Z,3.47
2018-06-30T06:31:46.645Z,3.50
2018-06-30T06:34:15.920Z,3.40
2018-06-30T06:36:45.045Z,4.43
2018-06-30T06:39:13.837Z,3.90
2018-06-30T06:41:42.770Z,3.83
2018-06-30T06:44:11.870Z,4.27
2018-06-30T06:46:41.012Z,4.33
2018-06-30T06:49:10.019Z,3.60
2018-06-30T06:51:39.006Z,3.60
2018-06-30T06:54:08.005Z,4.10
2018-06-30T06:56:36.916Z,4.20
2018-06-30T06:59:06.175Z,3.53
2018-06-30T07:01:34.924Z,3.60
2018-06-30T07:04:03.861Z,3.97
2018-06-30T07:06:33.065Z,3.50
2018-06-30T07:09:01.821Z,3.70
2018-06-30T07:11:30.644Z,3.73
2018-06-30T07:13:59.526Z,3.03
2018-06-30T07:16:28.781Z,4.00
2018-06-30T07:18:57.750Z,3.80
2018-06-30T07:21:26.765Z,3.53
2018-06-30T07:23:55.800Z,4.40
2018-06-30T07:26:25.158Z,3.77
2018-06-30T07:28:54.334Z,3.63
2018-06-30T07:31:23.237Z,3.20
2018-06-30T07:33:52.061Z,3.03
2018-06-30T07:36:21.005Z,3.97
2018-06-30T07:38:51.213Z,3.40
2018-06-30T07:41:20.214Z,2.40
2018-06-30T07:43:49.345Z,3.80
2018-06-30T07:46:18.153Z,3.60
2018-06-30T07:48:47.039Z,2.83
2018-06-30T07:51:15.751Z,3.27
2018-06-30T07:53:44.643Z,3.30
2018-06-30T07:56:13.815Z,3.43
2018-06-30T07:58:42.511Z,3.17
2018-06-30T08:01:11.521Z,3.17
2018-06-30T08:03:40.353Z,4.07
2018-06-30T08:06:09.955Z,4.00
2018-06-30T08:08:38.813Z,3.60
2018-06-30T08:11:07.729Z,4.23
2018-06-30T08:13:36.797Z,4.70
2018-06-30T08:16:05.725Z,3.30
2018-06-30T08:18:34.709Z,3.90
2018-06-30T08:21:03.842Z,3.87
2018-06-30T08:23:33.135Z,4.23
2018-06-30T08:26:02.436Z,4.20
2018-06-30T08:28:31.429Z,3.90
2018-06-30T08:31:00.516Z,3.90
2018-06-30T08:33:29.733Z,3.90
2018-06-30T08:35:58.558Z,3.70
2018-06-30T08:38:27.451Z,4.50
2018-06-30T08:40:56.610Z,4.10
2018-06-30T08:43:25.545Z,4.07
2018-06-30T08:45:54.799Z,3.70
2018-06-30T08:48:23.664Z,3.63
2018-06-30T08:50:52.517Z,3.90
2018-06-30T08:53:21.640Z,5.00
2018-06-30T08:55:50.848Z,4.23
2018-06-30T08:58:19.653Z,4.60
2018-06-30T09:00:48.847Z,4.73
2018-06-30T09:03:17.531Z,4.93
2018-06-30T09:05:46.645Z,5.00
2018-06-30T09:08:15.519Z,4.70
2018-06-30T09:10:46.199Z,4.90
2018-06-30T09:13:14.990Z,4.00
2018-06-30T09:15:44.325Z,4.23
2018-06-30T09:18:13.145Z,4.80
2018-06-30T09:20:41.913Z,4.37
2018-06-30T09:23:10.917Z,3.60
2018-06-30T09:25:39.726Z,3.27
2018-06-30T09:28:08.462Z,4.40
2018-06-30T09:30:37.651Z,4.70
2018-06-30T09:33:06.639Z,4.33
2018-06-30T09:35:35.526Z,4.03
2018-06-30T09:38:05.578Z,3.70
2018-06-30T09:40:34.666Z,3.73
2018-06-30T09:43:03.659Z,4.60
2018-06-30T09:45:32.475Z,3.70
2018-06-30T09:48:01.385Z,4.00
2018-06-30T09:50:30.261Z,4.07
2018-06-30T09:52:59.154Z,4.13
2018-06-30T09:55:28.228Z,4.70
2018-06-30T09:57:57.117Z,4.27
2018-06-30T10:00:32.114Z,4.50
2018-06-30T10:03:01.352Z,4.27
2018-06-30T10:05:30.657Z,3.80
2018-06-30T10:07:59.687Z,3.47
2018-06-30T10:10:28.461Z,3.23
2018-06-30T10:12:57.758Z,3.70
2018-06-30T10:15:26.729Z,4.43
2018-06-30T10:17:55.541Z,4.37
2018-06-30T10:20:24.766Z,6.07
2018-06-30T10:22:53.880Z,4.30
2018-06-30T10:25:23.076Z,4.00
2018-06-30T10:27:51.910Z,3.83
2018-06-30T10:30:20.784Z,3.80
2018-06-30T10:32:49.671Z,4.30
2018-06-30T10:35:18.609Z,4.20
2018-06-30T10:37:47.679Z,4.50
2018-06-30T10:40:16.757Z,4.33
2018-06-30T10:42:45.766Z,4.27
2018-06-30T10:45:14.722Z,4.50
2018-06-30T10:47:43.977Z,4.03
2018-06-30T10:50:12.711Z,3.80
2018-06-30T10:52:41.615Z,4.10
2018-06-30T10:55:10.813Z,3.83
2018-06-30T10:57:39.861Z,3.87
2018-06-30T11:00:09.241Z,3.90
2018-06-30T11:02:38.509Z,4.37
2018-06-30T11:05:07.747Z,4.30
2018-06-30T11:07:36.531Z,3.73
2018-06-30T11:10:05.542Z,3.50
2018-06-30T11:12:34.512Z,3.37
2018-06-30T11:15:03.734Z,4.30
2018-06-30T11:17:32.618Z,4.60
2018-06-30T11:20:01.508Z,3.90
2018-06-30T11:22:30.554Z,3.73
2018-06-30T11:24:59.331Z,4.00
2018-06-30T11:27:28.213Z,3.80
2018-06-30T11:29:57.137Z,4.27
2018-06-30T11:32:25.938Z,4.43
2018-06-30T11:34:55.183Z,4.40
2018-06-30T11:37:24.621Z,3.63
2018-06-30T11:39:53.846Z,3.50
2018-06-30T11:42:22.505Z,3.43
2018-06-30T11:44:52.181Z,3.93
2018-06-30T11:47:21.021Z,3.20
2018-06-30T11:49:50.012Z,3.20
2018-06-30T11:52:19.058Z,4.97
2018-06-30T11:54:48.012Z,3.00
2018-06-30T11:57:17.318Z,2.93
2018-06-30T11:59:46.279Z,3.60
2018-06-30T12:02:15.199Z,3.47
2018-06-30T12:04:44.390Z,3.40
2018-06-30T12:07:13.187Z,3.10
2018-06-30T12:09:42.071Z,3.47
2018-06-30T12:12:10.936Z,3.07
2018-06-30T12:14:40.128Z,2.60
2018-06-30T12:17:09.299Z,3.07
2018-06-30T12:19:38.511Z,2.80
2018-06-30T12:22:07.724Z,2.63
2018-06-30T12:24:36.848Z,2.63
2018-06-30T12:27:05.818Z,2.87
2018-06-30T12:29:34.673Z,2.80
2018-06-30T12:32:03.817Z,2.30
2018-06-30T12:34:32.709Z,2.60
2018-06-30T12:37:01.726Z,4.50
2018-06-30T12:39:30.650Z,2.30
2018-06-30T12:41:59.494Z,2.47
2018-06-30T12:44:28.452Z,2.47
2018-06-30T12:46:57.460Z,2.00
2018-06-30T12:49:26.714Z,2.00
2018-06-30T12:51:55.620Z,2.20
2018-06-30T12:54:24.842Z,2.63
2018-06-30T12:56:53.566Z,2.20
2018-06-30T12:59:22.666Z,2.07
2018-06-30T13:01:51.929Z,2.43
2018-06-30T13:04:20.655Z,2.30
2018-06-30T13:06:49.878Z,2.10
2018-06-30T13:09:18.884Z,2.03
2018-06-30T13:11:48.252Z,1.70
2018-06-30T13:14:17.481Z,1.70
2018-06-30T13:16:46.536Z,2.07
2018-06-30T13:19:15.558Z,1.80
2018-06-30T13:21:44.482Z,1.93
2018-06-30T13:24:13.370Z,1.63
2018-06-30T13:26:42.133Z,1.87
2018-06-30T13:29:10.993Z,2.03
2018-06-30T13:31:40.172Z,1.87
2018-06-30T13:34:09.379Z,2.07
2018-06-30T13:36:38.660Z,1.83
2018-06-30T13:39:12.067Z,1.90
2018-06-30T13:41:41.127Z,1.80
2018-06-30T13:44:10.470Z,1.50
2018-06-30T13:46:39.979Z,2.10
2018-06-30T13:49:09.400Z,1.60
2018-06-30T13:51:38.329Z,1.10
2018-06-30T13:54:08.049Z,1.20
2018-06-30T13:56:37.205Z,5.70
2018-06-30T13:59:06.410Z,1.70
2018-06-30T14:01:35.228Z,1.57
2018-06-30T14:04:04.174Z,5.20
2018-06-30T14:06:33.465Z,1.70
2018-06-30T14:09:02.586Z,1.90
2018-06-30T14:11:32.033Z,1.63
2018-06-30T14:14:01.188Z,1.50
2018-06-30T14:16:30.083Z,2.30
2018-06-30T14:18:59.134Z,1.70
2018-06-30T14:21:28.400Z,1.50
2018-06-30T14:23:57.217Z,1.40
2018-06-30T14:26:28.283Z,1.30
2018-06-30T14:28:57.532Z,1.50
2018-06-30T14:31:26.584Z,1.73
2018-06-30T14:33:55.986Z,1.80
2018-06-30T14:36:25.147Z,2.70
2018-06-30T14:38:54.310Z,1.00
2018-06-30T14:41:23.337Z,1.27
2018-06-30T14:43:52.354Z,1.27
2018-06-30T14:46:20.983Z,1.33
2018-06-30T14:48:49.755Z,1.40
2018-06-30T14:51:18.989Z,1.10
2018-06-30T14:53:47.900Z,1.00
2018-06-30T14:56:16.746Z,1.43
2018-06-30T14:58:45.944Z,2.20
2018-06-30T15:01:14.830Z,1.20
2018-06-30T15:03:43.723Z,1.10
2018-06-30T15:06:12.761Z,0.80
2018-06-30T15:08:41.592Z,1.03
2018-06-30T15:11:10.907Z,2.20
2018-06-30T15:13:39.829Z,2.10
2018-06-30T15:16:08.974Z,1.60
2018-06-30T15:18:37.895Z,1.63
2018-06-30T15:21:07.397Z,5.67
2018-06-30T15:23:36.394Z,1.47
2018-06-30T15:26:05.473Z,0.80
2018-06-30T15:28:34.789Z,1.13
2018-06-30T15:31:03.776Z,1.90
2018-06-30T15:33:32.675Z,2.33
2018-06-30T15:36:01.845Z,1.70
2018-06-30T15:38:30.807Z,1.80
2018-06-30T15:40:59.679Z,1.23
2018-06-30T15:43:28.481Z,1.50
2018-06-30T15:45:57.743Z,0.80
2018-06-30T15:48:26.552Z,1.20
2018-06-30T15:50:55.442Z,1.27
2018-06-30T15:53:24.314Z,0.80
2018-06-30T15:55:53.290Z,1.40
2018-06-30T15:58:22.399Z,1.00
2018-06-30T16:00:51.578Z,0.80
2018-06-30T16:03:20.923Z,0.87
2018-06-30T16:05:49.923Z,0.77
2018-06-30T16:08:18.965Z,1.00
2018-06-30T16:10:48.147Z,1.00
2018-06-30T16:13:21.311Z,2.30
2018-06-30T16:15:50.462Z,1.03
2018-06-30T16:18:19.436Z,1.00
2018-06-30T16:20:48.651Z,0.90
2018-06-30T16:23:17.638Z,0.80
2018-06-30T16:25:46.526Z,0.80
2018-06-30T16:28:15.419Z,1.13
2018-06-30T16:30:44.424Z,0.90
2018-06-30T16:33:13.478Z,1.10
2018-06-30T16:35:42.727Z,1.53
2018-06-30T16:38:13.208Z,0.77
2018-06-30T16:40:43.131Z,1.10
2018-06-30T16:43:14.894Z,0.70
2018-06-30T16:45:43.910Z,1.10
2018-06-30T16:48:12.968Z,0.80
2018-06-30T16:50:42.148Z,1.03
2018-06-30T16:53:11.059Z,1.23
2018-06-30T16:55:40.373Z,1.13
2018-06-30T16:58:09.659Z,0.80
2018-06-30T17:00:39.344Z,0.97
2018-06-30T17:03:08.946Z,0.80
2018-06-30T17:05:38.761Z,0.80
2018-06-30T17:08:07.885Z,0.77
2018-06-30T17:10:36.769Z,1.10
2018-06-30T17:13:05.677Z,1.47
2018-06-30T17:15:40.541Z,1.17
2018-06-30T17:18:09.734Z,0.70
2018-06-30T17:20:38.718Z,1.80
2018-06-30T17:23:08.114Z,1.10
2018-06-30T17:25:36.981Z,2.33
2018-06-30T17:28:06.502Z,1.40
2018-06-30T17:30:35.790Z,1.50
2018-06-30T17:33:05.266Z,1.17
2018-06-30T17:35:34.684Z,2.73
2018-06-30T17:38:03.578Z,0.90
2018-06-30T17:40:32.392Z,1.83
2018-06-30T17:43:01.111Z,3.47
2018-06-30T17:45:30.036Z,1.10
2018-06-30T17:47:59.065Z,1.17
2018-06-30T17:50:27.919Z,0.97
2018-06-30T17:52:57.258Z,2.50
2018-06-30T17:55:26.577Z,1.07
2018-06-30T17:57:55.607Z,1.10
2018-06-30T18:00:24.732Z,1.40
2018-06-30T18:02:55.951Z,1.20
2018-06-30T18:05:24.936Z,1.20
2018-06-30T18:07:53.694Z,1.57
2018-06-30T18:10:22.974Z,1.10
2018-06-30T18:12:52.213Z,1.50
2018-06-30T18:15:21.454Z,1.00
2018-06-30T18:17:50.569Z,1.10
2018-06-30T18:20:19.652Z,0.83
2018-06-30T18:22:48.988Z,1.10
2018-06-30T18:25:17.847Z,1.23
2018-06-30T18:27:46.713Z,1.47
2018-06-30T18:30:16.019Z,1.10
2018-06-30T18:32:45.312Z,1.60
2018-06-30T18:35:14.245Z,2.57
2018-06-30T18:37:43.539Z,1.20
2018-06-30T18:40:12.644Z,1.00
2018-06-30T18:42:42.182Z,1.00
2018-06-30T18:45:11.131Z,1.20
2018-06-30T18:47:40.100Z,1.20
2018-06-30T18:50:09.479Z,1.00
2018-06-30T18:52:39.354Z,1.07
2018-06-30T18:55:08.394Z,1.20
2018-06-30T18:57:37.333Z,0.87
2018-06-30T19:00:09.569Z,1.20
2018-06-30T19:02:38.870Z,0.97
2018-06-30T19:05:07.870Z,1.40
2018-06-30T19:07:36.719Z,1.87
2018-06-30T19:10:05.747Z,1.60
2018-06-30T19:12:34.917Z,1.33
2018-06-30T19:15:03.966Z,0.97
2018-06-30T19:17:32.677Z,1.33
2018-06-30T19:20:01.606Z,1.20
2018-06-30T19:22:30.609Z,1.40
2018-06-30T19:25:00.529Z,1.33
2018-06-30T19:27:29.550Z,1.23
2018-06-30T19:29:58.724Z,1.10
2018-06-30T19:32:27.533Z,1.00
2018-06-30T19:34:56.706Z,1.00
2018-06-30T19:37:25.493Z,0.90
2018-06-30T19:39:54.320Z,0.97
2018-06-30T19:42:23.294Z,0.70
2018-06-30T19:44:52.261Z,1.20
2018-06-30T19:47:21.396Z,0.90
2018-06-30T19:49:50.213Z,0.90
2018-06-30T19:52:19.219Z,1.00
2018-06-30T19:54:48.456Z,1.10
2018-06-30T19:57:18.346Z,0.80
2018-06-30T19:59:47.310Z,0.80
2018-06-30T20:02:16.068Z,0.97
2018-06-30T20:04:44.958Z,1.00
2018-06-30T20:07:14.189Z,0.60
2018-06-30T20:09:43.326Z,0.70
2018-06-30T20:12:12.330Z,0.97
2018-06-30T20:14:41.165Z,1.07
2018-06-30T20:17:10.187Z,0.83
2018-06-30T20:19:39.223Z,1.13
2018-06-30T20:22:08.259Z,1.07
2018-06-30T20:24:37.315Z,1.20
2018-06-30T20:27:06.489Z,0.67
2018-06-30T20:29:35.424Z,1.00
2018-06-30T20:32:05.787Z,1.20
2018-06-30T20:34:34.671Z,1.37
2018-06-30T20:37:04.068Z,0.97
2018-06-30T20:39:33.081Z,0.87
2018-06-30T20:42:02.307Z,1.03
2018-06-30T20:44:31.553Z,1.43
2018-06-30T20:47:00.643Z,1.00
2018-06-30T20:49:29.740Z,0.90
2018-06-30T20:51:58.494Z,0.73
2018-06-30T20:54:27.639Z,0.97
2018-06-30T20:56:56.483Z,1.37
2018-06-30T20:59:25.855Z,0.90
2018-06-30T21:01:55.657Z,0.80
2018-06-30T21:04:25.532Z,1.20
2018-06-30T21:06:54.580Z,0.83
2018-06-30T21:09:23.510Z,0.73
2018-06-30T21:11:52.704Z,0.80
2018-06-30T21:14:21.482Z,1.00
2018-06-30T21:16:50.408Z,0.70
2018-06-30T21:19:19.717Z,0.80
2018-06-30T21:21:48.465Z,1.00
2018-06-30T21:24:17.778Z,1.30
2018-06-30T21:26:46.606Z,0.97
2018-06-30T21:29:15.436Z,0.80
2018-06-30T21:31:44.327Z,1.00
2018-06-30T21:34:13.112Z,1.07
2018-06-30T21:36:42.096Z,0.67
2018-06-30T21:39:12.938Z,1.10
2018-06-30T21:41:42.224Z,1.10
2018-06-30T21:44:11.335Z,1.27
2018-06-30T21:46:40.593Z,0.73
2018-06-30T21:49:10.198Z,1.30
2018-06-30T21:51:39.633Z,0.80
2018-06-30T21:54:09.799Z,0.97
2018-06-30T21:56:41.020Z,0.83
2018-06-30T21:59:10.602Z,1.03
2018-06-30T22:01:41.173Z,0.80
2018-06-30T22:04:10.013Z,0.80
2018-06-30T22:06:39.764Z,0.70
2018-06-30T22:09:10.803Z,0.80
2018-06-30T22:11:39.708Z,1.10
2018-06-30T22:14:08.686Z,1.00
2018-06-30T22:16:37.626Z,0.93
2018-06-30T22:19:06.607Z,0.83
2018-06-30T22:21:36.341Z,1.00
2018-06-30T22:24:05.911Z,1.00
2018-06-30T22:26:34.933Z,0.87
2018-06-30T22:29:03.687Z,0.90
2018-06-30T22:31:32.453Z,1.93
2018-06-30T22:34:01.506Z,1.07
2018-06-30T22:36:30.326Z,1.27
2018-06-30T22:38:59.266Z,1.00
2018-06-30T22:41:28.107Z,0.70
2018-06-30T22:43:57.080Z,1.10
2018-06-30T22:46:26.028Z,0.80
2018-06-30T22:48:55.128Z,1.73
2018-06-30T22:51:25.235Z,0.70
2018-06-30T22:53:54.059Z,0.90
2018-06-30T22:56:22.926Z,1.10
2018-06-30T22:58:52.062Z,0.63
2018-06-30T23:01:21.106Z,1.30
2018-06-30T23:03:50.022Z,2.27
2018-06-30T23:06:18.863Z,0.87
2018-06-30T23:08:53.817Z,0.90
2018-06-30T23:11:24.488Z,1.00
2018-06-30T23:13:53.860Z,1.33
2018-06-30T23:16:22.855Z,1.20
2018-06-30T23:18:51.817Z,0.97
2018-06-30T23:21:20.785Z,1.10
2018-06-30T23:23:49.857Z,1.00
2018-06-30T23:26:18.790Z,1.00
2018-06-30T23:28:47.657Z,0.90
2018-06-30T23:31:16.577Z,0.90
2018-06-30T23:33:45.354Z,1.20
2018-06-30T23:36:14.215Z,4.67
2018-06-30T23:38:43.138Z,2.37
2018-06-30T23:41:11.888Z,0.90
2018-06-30T23:43:41.163Z,0.90
2018-06-30T23:46:09.934Z,2.00
